createdAt,value
2023-04-22T00:02:49.910Z,66.70
2023-04-22T00:05:57.872Z,66.80
2023-04-22T00:08:57.560Z,66.91
2023-04-22T00:12:06.547Z,67.11
2023-04-22T00:15:14.234Z,67.35
2023-04-22T00:18:21.580Z,67.21
2023-04-22T00:21:30.702Z,67.24
2023-04-22T00:24:38.210Z,67.35
2023-04-22T00:27:45.865Z,67.45
2023-04-22T00:30:54.701Z,67.55
2023-04-22T00:34:02.098Z,67.76
2023-04-22T00:37:09.920Z,67.96
2023-04-22T00:40:18.881Z,68.06
2023-04-22T00:43:26.139Z,68.19
2023-04-22T00:46:33.893Z,68.09
2023-04-22T00:49:41.333Z,67.99
2023-04-22T00:52:50.518Z,67.99
2023-04-22T00:55:58.183Z,68.09
2023-04-22T00:59:05.795Z,68.19
2023-04-22T01:02:14.659Z,68.30
2023-04-22T01:05:22.011Z,68.40
2023-04-22T01:08:29.804Z,68.50
2023-04-22T01:11:38.759Z,68.50
2023-04-22T01:14:46.088Z,68.63
2023-04-22T01:17:53.669Z,68.84
2023-04-22T01:21:02.130Z,69.15
2023-04-22T01:24:10.272Z,69.35
2023-04-22T01:27:18.026Z,69.56
2023-04-22T01:30:25.232Z,69.76
2023-04-22T01:33:34.432Z,69.86
2023-04-22T01:36:42.213Z,70.10
2023-04-22T01:39:49.702Z,70.20
2023-04-22T01:42:58.859Z,70.10
2023-04-22T01:46:06.230Z,70.10
2023-04-22T01:49:13.597Z,70.20
2023-04-22T01:52:22.664Z,70.30
2023-04-22T01:55:30.093Z,70.30
2023-04-22T01:58:37.573Z,70.51
2023-04-22T02:01:46.354Z,70.81
2023-04-22T02:04:53.715Z,71.01
2023-04-22T02:08:01.054Z,70.92
2023-04-22T02:11:09.778Z,71.15
2023-04-22T02:14:17.408Z,71.25
2023-04-22T02:17:24.945Z,71.46
2023-04-22T02:20:31.999Z,71.66
2023-04-22T02:23:41.203Z,71.87
2023-04-22T02:26:48.394Z,71.90
2023-04-22T02:29:56.138Z,72.11
2023-04-22T02:33:05.378Z,72.21
2023-04-22T02:36:12.869Z,72.41
2023-04-22T02:39:20.278Z,72.62
2023-04-22T02:42:29.627Z,72.92
2023-04-22T02:45:37.122Z,73.27
2023-04-22T02:48:44.543Z,73.57
2023-04-22T02:51:53.397Z,73.57
2023-04-22T02:55:01.071Z,73.68
2023-04-22T02:58:08.505Z,73.68
2023-04-22T03:01:16.059Z,73.47
2023-04-22T03:04:25.621Z,73.47
2023-04-22T03:07:33.387Z,73.47
2023-04-22T03:10:41.032Z,73.47
2023-04-22T03:13:49.955Z,73.47
2023-04-22T03:16:57.231Z,73.47
2023-04-22T03:20:05.289Z,73.57
2023-04-22T03:23:14.566Z,73.61
2023-04-22T03:26:21.642Z,73.71
2023-04-22T03:29:29.383Z,73.71
2023-04-22T03:32:38.895Z,73.81
2023-04-22T03:35:46.078Z,73.91
2023-04-22T03:38:53.915Z,73.91
2023-04-22T03:42:01.257Z,73.91
2023-04-22T03:45:10.046Z,73.91
2023-04-22T03:48:17.707Z,74.11
2023-04-22T03:51:25.086Z,74.32
2023-04-22T03:54:33.929Z,74.43
2023-04-22T03:57:41.571Z,74.46
2023-04-22T04:00:48.732Z,74.77
2023-04-22T04:03:57.756Z,74.77
2023-04-22T04:07:05.202Z,74.77
2023-04-22T04:10:12.921Z,74.77
2023-04-22T04:13:21.737Z,74.77
2023-04-22T04:16:29.183Z,74.77
2023-04-22T04:19:36.585Z,74.77
2023-04-22T04:22:44.069Z,74.87
2023-04-22T04:25:52.553Z,74.87
2023-04-22T04:29:00.360Z,74.87
2023-04-22T04:32:08.108Z,74.87
2023-04-22T04:35:16.640Z,75.07
2023-04-22T04:38:24.553Z,75.28
2023-04-22T04:41:31.964Z,75.38
2023-04-22T04:44:40.715Z,75.69
2023-04-22T04:47:48.581Z,75.79
2023-04-22T04:50:56.078Z,75.89
2023-04-22T04:54:04.900Z,75.99
2023-04-22T04:57:12.680Z,75.99
2023-04-22T05:00:20.089Z,75.99
2023-04-22T05:03:29.142Z,75.79
2023-04-22T05:06:37.140Z,75.79
2023-04-22T05:09:44.987Z,75.45
2023-04-22T05:12:52.789Z,75.35
2023-04-22T05:16:01.592Z,75.14
2023-04-22T05:19:09.175Z,74.80
2023-04-22T05:22:17.426Z,74.80
2023-04-22T05:25:26.464Z,74.46
2023-04-22T05:28:33.976Z,74.15
2023-04-22T05:31:41.438Z,73.94
2023-04-22T05:34:50.224Z,73.71
2023-04-22T05:37:58.002Z,73.47
2023-04-22T05:41:05.208Z,73.27
2023-04-22T05:44:14.517Z,73.03
2023-04-22T05:47:22.821Z,72.92
2023-04-22T05:50:30.079Z,72.82
2023-04-22T05:53:37.786Z,72.69
2023-04-22T05:56:46.813Z,72.79
2023-04-22T05:59:54.464Z,72.58
2023-04-22T06:03:01.948Z,72.65
2023-04-22T06:06:11.006Z,72.24
2023-04-22T06:09:19.331Z,72.11
2023-04-22T06:12:26.801Z,71.50
2023-04-22T06:15:35.423Z,71.26
2023-04-22T06:18:43.252Z,71.36
2023-04-22T06:21:50.684Z,70.72
2023-04-22T06:24:59.725Z,70.48
2023-04-22T06:28:07.585Z,70.07
2023-04-22T06:31:15.786Z,69.63
2023-04-22T06:34:22.945Z,69.53
2023-04-22T06:37:32.620Z,69.43
2023-04-22T06:40:39.612Z,69.09
2023-04-22T06:43:47.680Z,69.09
2023-04-22T06:46:58.296Z,68.96
2023-04-22T06:50:05.915Z,68.44
2023-04-22T06:53:13.489Z,68.32
2023-04-22T06:56:22.159Z,68.11
2023-04-22T06:59:29.773Z,67.77
2023-04-22T07:02:37.847Z,67.27
2023-04-22T07:05:47.256Z,67.13
2023-04-22T07:08:54.610Z,67.44
2023-04-22T07:12:03.014Z,66.80
2023-04-22T07:15:12.213Z,66.49
2023-04-22T07:18:20.392Z,66.36
2023-04-22T07:21:27.434Z,66.46
2023-04-22T07:24:34.826Z,65.72
2023-04-22T07:27:44.252Z,65.82
2023-04-22T07:30:51.524Z,65.28
2023-04-22T07:33:59.292Z,65.28
2023-04-22T07:37:08.598Z,65.15
2023-04-22T07:40:16.473Z,64.41
2023-04-22T07:43:24.122Z,63.78
2023-04-22T07:46:33.358Z,63.27
2023-04-22T07:49:41.221Z,63.04
2023-04-22T07:52:49.432Z,63.54
2023-04-22T07:56:00.944Z,62.90
2023-04-22T07:58:58.318Z,62.77
2023-04-22T08:02:06.153Z,62.47
2023-04-22T08:05:13.895Z,62.24
2023-04-22T08:08:22.339Z,62.82
2023-04-22T08:11:29.837Z,62.41
2023-04-22T08:14:37.487Z,62.28
2023-04-22T08:17:46.225Z,61.98
2023-04-22T08:20:54.346Z,61.24
2023-04-22T08:24:01.924Z,61.75
2023-04-22T08:27:10.770Z,60.61
2023-04-22T08:30:18.549Z,59.88
2023-04-22T08:33:27.357Z,60.55
2023-04-22T08:36:36.488Z,60.15
2023-04-22T08:39:44.456Z,60.17
2023-04-22T08:42:51.869Z,60.65
2023-04-22T08:45:59.489Z,60.85
2023-04-22T08:49:08.132Z,59.92
2023-04-22T08:52:16.214Z,58.81
2023-04-22T08:55:25.762Z,58.98
2023-04-22T08:58:35.547Z,58.98
2023-04-22T09:01:42.968Z,59.36
2023-04-22T09:04:50.538Z,59.06
2023-04-22T09:07:59.811Z,59.23
2023-04-22T09:11:07.736Z,59.63
2023-04-22T09:14:14.828Z,59.13
2023-04-22T09:17:24.037Z,59.30
2023-04-22T09:20:32.521Z,58.70
2023-04-22T09:23:39.809Z,58.97
2023-04-22T09:26:47.438Z,58.57
2023-04-22T09:29:56.422Z,58.44
2023-04-22T09:33:04.121Z,57.39
2023-04-22T09:36:11.571Z,56.78
2023-04-22T09:39:20.371Z,57.76
2023-04-22T09:42:28.229Z,57.03
2023-04-22T09:45:35.930Z,57.63
2023-04-22T09:48:44.664Z,57.13
2023-04-22T09:51:52.562Z,56.30
2023-04-22T09:55:00.696Z,56.48
2023-04-22T09:58:09.489Z,56.57
2023-04-22T10:01:17.178Z,55.85
2023-04-22T10:04:24.645Z,56.24
2023-04-22T10:07:33.453Z,56.87
2023-04-22T10:10:41.128Z,58.11
2023-04-22T10:13:48.124Z,57.17
2023-04-22T10:16:55.836Z,56.65
2023-04-22T10:20:04.903Z,56.42
2023-04-22T10:23:12.036Z,56.09
2023-04-22T10:26:19.962Z,57.07
2023-04-22T10:29:29.555Z,55.77
2023-04-22T10:32:36.789Z,55.04
2023-04-22T10:35:44.748Z,54.84
2023-04-22T10:38:53.695Z,55.34
2023-04-22T10:42:01.586Z,55.41
2023-04-22T10:45:08.976Z,55.09
2023-04-22T10:48:18.288Z,55.41
2023-04-22T10:51:26.348Z,55.51
2023-04-22T10:54:33.774Z,55.81
2023-04-22T10:57:41.123Z,55.39
2023-04-22T11:00:53.856Z,55.62
2023-04-22T11:03:50.891Z,55.58
2023-04-22T11:06:58.680Z,54.76
2023-04-22T11:10:07.344Z,53.91
2023-04-22T11:13:14.371Z,52.51
2023-04-22T11:16:22.682Z,52.49
2023-04-22T11:19:31.855Z,52.29
2023-04-22T11:22:38.980Z,51.87
2023-04-22T11:25:46.981Z,51.27
2023-04-22T11:28:56.415Z,49.16
2023-04-22T11:32:03.808Z,50.55
2023-04-22T11:35:11.468Z,49.73
2023-04-22T11:38:18.909Z,49.33
2023-04-22T11:41:27.810Z,49.21
2023-04-22T11:44:35.625Z,48.19
2023-04-22T11:47:43.051Z,47.13
2023-04-22T11:50:52.030Z,47.13
2023-04-22T11:53:59.887Z,47.40
2023-04-22T11:57:07.550Z,48.19
2023-04-22T12:00:16.484Z,46.01
2023-04-22T12:03:24.667Z,46.38
2023-04-22T12:06:32.922Z,46.08
2023-04-22T12:09:42.209Z,44.89
2023-04-22T12:12:49.488Z,45.19
2023-04-22T12:15:56.844Z,39.81
2023-04-22T12:19:03.892Z,37.32
2023-04-22T12:22:12.742Z,37.11
2023-04-22T12:25:20.933Z,37.01
2023-04-22T12:28:28.099Z,36.00
2023-04-22T12:31:37.321Z,35.21
2023-04-22T12:34:44.919Z,35.41
2023-04-22T12:37:52.543Z,34.00
2023-04-22T12:41:01.719Z,33.90
2023-04-22T12:44:10.244Z,34.89
2023-04-22T12:47:18.911Z,34.38
2023-04-22T12:50:27.954Z,33.78
2023-04-22T12:53:35.567Z,34.20
2023-04-22T12:56:43.377Z,34.69
2023-04-22T12:59:50.611Z,34.81
2023-04-22T13:02:59.142Z,35.72
2023-04-22T13:06:06.747Z,37.21
2023-04-22T13:09:14.143Z,36.51
2023-04-22T13:12:22.753Z,35.50
2023-04-22T13:15:30.552Z,35.90
2023-04-22T13:18:38.007Z,36.10
2023-04-22T13:21:46.785Z,37.17
2023-04-22T13:24:54.699Z,36.36
2023-04-22T13:28:01.713Z,37.17
2023-04-22T13:31:10.881Z,36.28
2023-04-22T13:34:18.654Z,35.90
2023-04-22T13:37:25.699Z,36.61
2023-04-22T13:40:35.012Z,37.72
2023-04-22T13:43:42.613Z,37.24
2023-04-22T13:46:49.652Z,38.64
2023-04-22T13:49:57.397Z,39.05
2023-04-22T13:53:06.418Z,39.65
2023-04-22T13:56:13.555Z,39.35
2023-04-22T13:59:21.216Z,39.67
2023-04-22T14:02:29.976Z,40.06
2023-04-22T14:05:37.413Z,40.38
2023-04-22T14:08:45.271Z,40.88
2023-04-22T14:11:54.073Z,41.77
2023-04-22T14:15:01.722Z,43.76
2023-04-22T14:18:09.693Z,44.24
2023-04-22T14:21:18.472Z,44.74
2023-04-22T14:24:26.098Z,44.42
2023-04-22T14:27:33.739Z,44.29
2023-04-22T14:30:41.555Z,44.18
2023-04-22T14:33:50.680Z,44.07
2023-04-22T14:36:58.310Z,44.29
2023-04-22T14:40:06.449Z,45.49
2023-04-22T14:43:15.456Z,46.03
2023-04-22T14:46:23.178Z,46.47
2023-04-22T14:49:33.185Z,47.17
2023-04-22T14:52:31.535Z,47.29
2023-04-22T14:55:38.928Z,47.99
2023-04-22T14:58:46.826Z,47.74
2023-04-22T15:01:55.388Z,47.22
2023-04-22T15:05:03.446Z,45.51
2023-04-22T15:08:11.548Z,45.11
2023-04-22T15:11:19.279Z,45.90
2023-04-22T15:14:28.314Z,46.20
2023-04-22T15:17:35.818Z,44.49
2023-04-22T15:20:43.171Z,43.40
2023-04-22T15:23:52.092Z,43.82
2023-04-22T15:26:59.528Z,44.96
2023-04-22T15:30:07.537Z,46.08
2023-04-22T15:33:16.227Z,46.20
2023-04-22T15:36:23.689Z,46.31
2023-04-22T15:39:31.757Z,46.06
2023-04-22T15:42:40.769Z,46.38
2023-04-22T15:45:48.312Z,46.50
2023-04-22T15:48:55.914Z,47.13
2023-04-22T15:52:03.656Z,47.25
2023-04-22T15:55:12.781Z,47.95
2023-04-22T15:58:20.640Z,48.14
2023-04-22T16:01:27.667Z,48.45
2023-04-22T16:04:36.983Z,49.44
2023-04-22T16:07:44.858Z,49.05
2023-04-22T16:10:52.104Z,49.55
2023-04-22T16:14:01.572Z,49.72
2023-04-22T16:17:09.448Z,49.30
2023-04-22T16:20:16.801Z,48.48
2023-04-22T16:23:25.878Z,48.16
2023-04-22T16:26:33.642Z,47.74
2023-04-22T16:29:40.998Z,46.91
2023-04-22T16:32:48.433Z,47.02
2023-04-22T16:35:57.323Z,46.61
2023-04-22T16:39:04.699Z,46.31
2023-04-22T16:42:11.987Z,47.24
2023-04-22T16:45:21.258Z,48.08
2023-04-22T16:48:28.985Z,48.80
2023-04-22T16:51:36.622Z,49.52
2023-04-22T16:54:45.520Z,50.15
2023-04-22T16:57:53.618Z,50.24
2023-04-22T17:01:00.744Z,50.47
2023-04-22T17:04:09.909Z,50.57
2023-04-22T17:07:17.670Z,50.89
2023-04-22T17:10:24.766Z,51.20
2023-04-22T17:13:34.097Z,51.59
2023-04-22T17:16:41.970Z,51.52
2023-04-22T17:19:49.390Z,51.52
2023-04-22T17:22:56.876Z,52.55
2023-04-22T17:26:06.135Z,52.74
2023-04-22T17:29:13.943Z,52.97
2023-04-22T17:32:21.477Z,53.77
2023-04-22T17:35:30.297Z,53.50
2023-04-22T17:38:38.274Z,53.80
2023-04-22T17:41:45.634Z,54.43
2023-04-22T17:44:54.471Z,54.62
2023-04-22T17:48:02.311Z,54.75
2023-04-22T17:51:10.102Z,55.47
2023-04-22T17:54:19.261Z,55.78
2023-04-22T17:57:27.303Z,56.21
2023-04-22T18:00:34.940Z,56.84
2023-04-22T18:03:42.686Z,57.44
2023-04-22T18:06:52.146Z,57.77
2023-04-22T18:09:59.471Z,58.07
2023-04-22T18:13:07.407Z,58.70
2023-04-22T18:16:17.046Z,58.90
2023-04-22T18:19:24.218Z,59.43
2023-04-22T18:22:32.570Z,59.63
2023-04-22T18:25:42.553Z,60.03
2023-04-22T18:28:49.717Z,60.36
2023-04-22T18:31:57.479Z,60.36
2023-04-22T18:35:06.216Z,60.36
2023-04-22T18:38:13.406Z,60.67
2023-04-22T18:41:21.343Z,61.07
2023-04-22T18:44:28.840Z,62.10
2023-04-22T18:47:37.833Z,62.81
2023-04-22T18:50:44.858Z,62.61
2023-04-22T18:53:52.654Z,62.44
2023-04-22T18:57:01.416Z,62.24
2023-04-22T19:00:09.426Z,62.44
2023-04-22T19:03:17.048Z,62.44
2023-04-22T19:06:25.958Z,62.24
2023-04-22T19:09:33.475Z,62.34
2023-04-22T19:12:41.275Z,62.34
2023-04-22T19:15:49.978Z,62.84
2023-04-22T19:18:57.076Z,63.14
2023-04-22T19:22:04.712Z,63.37
2023-04-22T19:25:13.561Z,63.17
2023-04-22T19:28:20.949Z,63.27
2023-04-22T19:31:28.658Z,63.37
2023-04-22T19:34:35.859Z,63.47
2023-04-22T19:37:45.192Z,63.67
2023-04-22T19:40:53.044Z,63.67
2023-04-22T19:44:00.029Z,63.98
2023-04-22T19:47:09.436Z,64.18
2023-04-22T19:50:19.050Z,64.38
2023-04-22T19:53:26.468Z,64.07
2023-04-22T19:56:35.342Z,64.28
2023-04-22T19:59:43.080Z,64.38
2023-04-22T20:02:50.465Z,64.41
2023-04-22T20:05:59.360Z,64.51
2023-04-22T20:09:06.859Z,65.52
2023-04-22T20:12:14.404Z,66.36
2023-04-22T20:15:22.001Z,67.16
2023-04-22T20:18:31.093Z,67.90
2023-04-22T20:21:38.856Z,68.10
2023-04-22T20:24:46.445Z,68.41
2023-04-22T20:27:55.226Z,68.64
2023-04-22T20:31:02.913Z,68.84
2023-04-22T20:34:10.249Z,69.04
2023-04-22T20:37:18.840Z,69.78
2023-04-22T20:40:27.302Z,70.19
2023-04-22T20:43:34.317Z,70.49
2023-04-22T20:46:43.401Z,70.39
2023-04-22T20:49:51.291Z,70.89
2023-04-22T20:52:58.252Z,70.89
2023-04-22T20:56:05.576Z,70.69
2023-04-22T20:59:14.678Z,71.17
2023-04-22T21:02:21.823Z,70.86
2023-04-22T21:05:29.659Z,70.76
2023-04-22T21:08:38.517Z,70.26
2023-04-22T21:11:46.016Z,70.15
2023-04-22T21:14:53.746Z,71.06
2023-04-22T21:18:02.643Z,70.76
2023-04-22T21:21:10.145Z,71.37
2023-04-22T21:24:17.507Z,70.56
2023-04-22T21:27:26.322Z,71.37
2023-04-22T21:30:34.076Z,70.56
2023-04-22T21:33:41.136Z,70.66
2023-04-22T21:36:48.827Z,70.86
2023-04-22T21:39:58.152Z,70.19
2023-04-22T21:43:05.182Z,69.38
2023-04-22T21:46:12.492Z,68.67
2023-04-22T21:49:21.376Z,68.27
2023-04-22T21:52:28.440Z,66.78
2023-04-22T21:55:36.196Z,66.45
2023-04-22T21:58:45.261Z,66.45
2023-04-22T22:01:52.475Z,65.64
2023-04-22T22:05:00.256Z,65.44
2023-04-22T22:08:09.081Z,64.94
2023-04-22T22:11:27.695Z,64.94
2023-04-22T22:14:21.579Z,65.04
2023-04-22T22:17:30.149Z,64.73
2023-04-22T22:20:37.693Z,64.33
2023-04-22T22:23:45.756Z,64.20
2023-04-22T22:26:53.119Z,63.79
2023-04-22T22:30:02.027Z,63.59
2023-04-22T22:33:09.355Z,63.39
2023-04-22T22:36:17.108Z,63.39
2023-04-22T22:39:26.028Z,63.29
2023-04-22T22:42:33.617Z,65.01
2023-04-22T22:45:41.418Z,67.33
2023-04-22T22:48:49.732Z,70.86
2023-04-22T22:51:57.209Z,70.39
2023-04-22T22:55:04.913Z,70.19
2023-04-22T22:58:13.604Z,69.92
2023-04-22T23:01:21.019Z,71.13
2023-04-22T23:04:28.892Z,70.32
2023-04-22T23:07:36.001Z,68.10
2023-04-22T23:10:45.184Z,68.20
2023-04-22T23:13:53.165Z,67.29
2023-04-22T23:17:00.357Z,67.19
2023-04-22T23:20:09.706Z,66.48
2023-04-22T23:23:17.451Z,66.28
2023-04-22T23:26:24.436Z,66.48
2023-04-22T23:29:33.361Z,66.08
2023-04-22T23:32:40.717Z,66.28
2023-04-22T23:35:48.053Z,66.69
2023-04-22T23:38:58.044Z,67.83
2023-04-22T23:42:05.498Z,68.84
2023-04-22T23:45:12.923Z,70.56
2023-04-22T23:48:20.289Z,71.77
2023-04-22T23:51:29.213Z,72.41
2023-04-22T23:54:36.655Z,73.32
2023-04-22T23:57:44.358Z,73.63
